Weather at Belleville Aerodrome

Public forecast

Using degrees Celsius for public forecast. Weather courtesy of forecast.io.

Closest aviation weather report (METAR) to Belleville Aerodrome

Closest report is CFB Trenton, 10.4 nm (19.3 km) WSW.

2024/07/22 20:00 (retrieved 25 minutes ago)

CYTR 222000Z 17005KT 150V230 15SM FEW040 BKN250 28/19 A2996 RMK CU1CI5 DENSITY ALT 2054FT SLP145

Closest aviation forecast (TAF) to Belleville Aerodrome

Closest forecast is CFB Trenton, 10.4 nm (19.3 km) WSW.

2024/07/22 18:42 (retrieved 2 hours ago)

TAF CYTR 221740Z 2218/2318 20008KT P6SM SCT040 BKN250 FM230600 VRB03KT P6SM SCT080 BKN160 PROB30 2306/2311 2SM BR FM231100 20005KT P6SM BKN030 RMK NXT FCST BY 230000Z